Tatiana 1 — 9HA2824 — position and weather

sailwx.info

Track history (hours):
 
Tides and Currents Weather Stations Pressure Air Temp Water Temp Dewpoint Dewpoint Depression Visibility Wind Speed Wind Dir Waves Ship Positions

Tatiana 1

Last reported at 2017-Jul-22 11:56 UTC. Time now 2017-Jul-22 14:53 UTC.
Position N 38°55' E 001°27'.

Length 47 m; draft 2.5 m.

Type: Ship. MMSI: 256188000.

Date/timePositionNaut miles runAvg speedWind from/ knotsBaromVisibWave heightAir tempDewpointWater temp
2017-Jul-22 11:56N 38°55' E 001°27'0 0.0
2017-Jul-22 11:26N 38°55' E 001°27'0 0.0
2017-Jul-22 10:44N 38°55' E 001°27'1 0.1
2017-Jul-21 23:26N 38°54' E 001°26'4 9.3
2017-Jul-21 23:00N 38°55' E 001°31'5 9.6
2017-Jul-21 22:30N 38°58' E 001°36'5 9.6
2017-Jul-21 22:00N 39°01' E 001°40'5 9.6
2017-Jul-21 21:30N 39°05' E 001°44'5 9.7
2017-Jul-21 21:00N 39°09' E 001°48'5 9.8
2017-Jul-21 20:30N 39°13' E 001°52'5 9.9
2017-Jul-21 20:00N 39°17' E 001°55'510.1
2017-Jul-21 19:30N 39°21' E 001°59'510.1
2017-Jul-21 19:00N 39°25' E 002°03'5 9.9
2017-Jul-21 18:30N 39°28' E 002°07'5 9.9
2017-Jul-21 18:00N 39°32' E 002°12'510.0
2017-Jul-21 17:30N 39°36' E 002°16'510.0
2017-Jul-21 17:00N 39°40' E 002°21'510.5
2017-Jul-21 16:30N 39°43' E 002°25'510.4
2017-Jul-21 16:00N 39°47' E 002°30'510.4
2017-Jul-21 15:30N 39°50' E 002°35'5 9.8
2017-Jul-21 15:00N 39°53' E 002°41'5 9.9
2017-Jul-21 14:30N 39°55' E 002°46'5 9.8
2017-Jul-21 14:00N 39°58' E 002°52'112 9.3
2017-Jul-21 02:01N 41°10' E 004°45'0 9.9
2017-Jul-21 01:59N 41°10' E 004°45'5 9.4
2017-Jul-21 01:30N 41°15' E 004°47'5 9.6
2017-Jul-21 01:00N 41°19' E 004°50'5 9.9
2017-Jul-21 00:30N 41°23' E 004°53'5 9.9
2017-Jul-21 00:00N 41°28' E 004°56'5 9.9
2017-Jul-20 23:30N 41°32' E 004°59'7 9.8
2017-Jul-20 22:48N 41°38' E 005°03'3 9.9
2017-Jul-20 22:30N 41°41' E 005°05'27 9.7
2017-Jul-20 19:42N 42°05' E 005°22'210.0
2017-Jul-20 19:30N 42°07' E 005°23'510.1
2017-Jul-20 19:00N 42°11' E 005°26'610.1
2017-Jul-20 18:26N 42°16' E 005°30'510.1
2017-Jul-20 17:56N 42°21' E 005°33'4 9.8
2017-Jul-20 17:30N 42°24' E 005°35'5 9.7
2017-Jul-20 17:00N 42°29' E 005°38'5 9.4
2017-Jul-20 16:30N 42°33' E 005°41'5 9.2
2017-Jul-20 16:00N 42°37' E 005°44'5 9.3
2017-Jul-20 15:30N 42°41' E 005°47'6 9.0
2017-Jul-20 14:50N 42°46' E 005°52'810.0
2017-Jul-20 14:00N 42°49' E 006°03'510.2
2017-Jul-20 13:30N 42°50' E 006°09'510.4
2017-Jul-20 13:00N 42°52' E 006°16'510.4
2017-Jul-20 12:30N 42°54' E 006°23'510.1
2017-Jul-20 12:00N 42°57' E 006°28'510.3
2017-Jul-20 11:30N 43°01' E 006°33'510.3
2017-Jul-20 11:00N 43°05' E 006°37'910.1
2017-Jul-20 10:08N 43°13' E 006°43'110.0
2017-Jul-20 10:00N 43°14' E 006°43'5 3.1
2017-Jul-20 08:27N 43°16' E 006°37'0 0.1
2017-Jul-20 07:54N 43°16' E 006°38'0 0.0
2017-Jul-20 07:27N 43°16' E 006°38'0 0.0
2017-Jul-20 06:57N 43°16' E 006°38'0 0.0
2017-Jul-20 06:27N 43°16' E 006°38'0 0.0
2017-Jul-20 06:00N 43°16' E 006°38'0 0.0
2017-Jul-20 05:27N 43°16' E 006°38'0 0.0
2017-Jul-20 05:00N 43°16' E 006°38'0 0.0
2017-Jul-20 04:30N 43°16' E 006°38'0 0.0
2017-Jul-20 04:00N 43°16' E 006°38'0 0.0
2017-Jul-20 02:45N 43°16' E 006°38'0 0.1
2017-Jul-20 02:30N 43°16' E 006°38'0 0.0
2017-Jul-20 01:00N 43°16' E 006°38'0 0.0
2017-Jul-20 00:27N 43°16' E 006°38'0 0.0
2017-Jul-19 23:57N 43°16' E 006°38'0 0.0
2017-Jul-19 23:30N 43°16' E 006°38'0 0.0
2017-Jul-19 23:00N 43°16' E 006°38'0 0.0
2017-Jul-19 22:27N 43°16' E 006°38'0 0.0
2017-Jul-19 15:31N 43°16' E 006°37'0 0.0
2017-Jul-19 15:24N 43°16' E 006°37'1 3.7
2017-Jul-19 15:00N 43°17' E 006°39'4 7.1
2017-Jul-19 14:30N 43°15' E 006°43'2 3.3
2017-Jul-19 13:49N 43°13' E 006°40'0 0.0
2017-Jul-19 12:43N 43°13' E 006°40'0 0.0
2017-Jul-19 12:25N 43°13' E 006°40'0 0.0
2017-Jul-19 11:58N 43°13' E 006°40'0 0.0
2017-Jul-19 11:28N 43°13' E 006°40'0 0.0
2017-Jul-19 10:43N 43°13' E 006°40'0 0.0
2017-Jul-19 10:28N 43°13' E 006°40'0 0.0
2017-Jul-19 08:27N 43°13' E 006°40'4 3.6
2017-Jul-19 07:24N 43°16' E 006°37'0 0.0
2017-Jul-19 06:03N 43°16' E 006°37'0 0.1
2017-Jul-19 06:00N 43°16' E 006°37'0 0.0
2017-Jul-19 05:30N 43°16' E 006°37'0 0.0
2017-Jul-18 21:15N 43°16' E 006°37'0 0.1
2017-Jul-18 21:00N 43°16' E 006°37'0 0.0
2017-Jul-18 12:07N 43°16' E 006°37'8 7.2
2017-Jul-18 11:05N 43°19' E 006°47'111.4
2017-Jul-18 11:00N 43°20' E 006°48'611.3
2017-Jul-18 10:30N 43°24' E 006°53'5 9.7
2017-Jul-18 10:00N 43°28' E 006°57'5 9.8
2017-Jul-18 09:30N 43°32' E 007°00'1 0.3
2017-Jul-18 05:43N 43°33' E 007°01'0 0.0
2017-Jul-18 05:19N 43°33' E 007°01'0 0.0
2017-Jul-18 04:49N 43°33' E 007°01'0 0.0
2017-Jul-18 04:19N 43°33' E 007°01'0 0.0
2017-Jul-18 03:49N 43°33' E 007°01'0 0.0
2017-Jul-18 03:01N 43°33' E 007°01'0 0.0
2017-Jul-18 02:49N 43°33' E 007°01'0 0.0
2017-Jul-18 02:07N 43°33' E 007°01'0 0.0
2017-Jul-18 01:49N 43°33' E 007°01'0 0.0
2017-Jul-18 01:07N 43°33' E 007°01'0 0.0
2017-Jul-18 00:49N 43°33' E 007°01'0 0.0
2017-Jul-18 00:19N 43°33' E 007°01'0 0.0
2017-Jul-17 23:49N 43°33' E 007°01'0 0.0
2017-Jul-17 23:25N 43°33' E 007°01'0 0.0
2017-Jul-17 22:55N 43°33' E 007°01'0 0.0
2017-Jul-17 22:25N 43°33' E 007°01'0 0.0
2017-Jul-17 21:43N 43°33' E 007°01'0 0.0
2017-Jul-17 21:07N 43°33' E 007°01'0 0.0
2017-Jul-17 20:55N 43°33' E 007°01'0 0.0
2017-Jul-17 20:13N 43°33' E 007°01'0 0.0
2017-Jul-17 19:55N 43°33' E 007°01'0 0.0
2017-Jul-17 19:25N 43°33' E 007°01'0 0.0
2017-Jul-17 18:55N 43°33' E 007°01'0 0.0
2017-Jul-17 18:28N 43°33' E 007°01'0 0.0
2017-Jul-17 17:43N 43°33' E 007°01'0 0.0
2017-Jul-17 17:13N 43°33' E 007°01'0 0.0
2017-Jul-17 16:43N 43°33' E 007°01'0 0.0
2017-Jul-17 16:19N 43°33' E 007°01'0 0.2
2017-Jul-17 16:01N 43°33' E 007°01'3 6.3
2017-Jul-17 15:30N 43°31' E 007°04'0 0.7
2017-Jul-17 15:00N 43°31' E 007°04'0 0.0
2017-Jul-17 14:27N 43°31' E 007°04'0 0.0
2017-Jul-17 14:00N 43°31' E 007°04'0 0.0
2017-Jul-17 13:24N 43°31' E 007°04'0 0.0
2017-Jul-17 12:57N 43°31' E 007°04'0 0.0
2017-Jul-17 12:30N 43°31' E 007°04'1 2.8
2017-Jul-17 12:00N 43°32' E 007°06'611.3
2017-Jul-17 11:29N 43°35' E 007°12'711.7
2017-Jul-17 10:53N 43°40' E 007°20'6 0.4
2017-Jul-16 17:37N 43°44' E 007°26'0 0.0
2017-Jul-16 17:29N 43°44' E 007°26'21 1.5
2017-Jul-16 03:51N 43°49' E 007°54'412.5
2017-Jul-16 03:29N 43°50' E 007°60'612.6
2017-Jul-16 03:01N 43°53' E 008°07'612.9
2017-Jul-16 02:31N 43°57' E 008°15'714.6
2017-Jul-16 02:00N 44°01' E 008°23'714.7
2017-Jul-16 01:30N 44°06' E 008°30'714.6
2017-Jul-16 01:01N 44°11' E 008°38'714.3
2017-Jul-16 00:30N 44°15' E 008°46'713.9
2017-Jul-16 00:00N 44°17' E 008°55'612.6
2017-Jul-15 23:30N 44°17' E 009°04'612.4
2017-Jul-15 23:00N 44°17' E 009°13'1 1.8
2017-Jul-15 22:30N 44°18' E 009°13'0 0.9
2017-Jul-15 22:00N 44°19' E 009°13'1 0.3
2017-Jul-15 16:57N 44°20' E 009°13'0 0.2
2017-Jul-15 16:29N 44°20' E 009°13'1 2.3
2017-Jul-15 16:00N 44°19' E 009°13'0 0.0
2017-Jul-15 15:30N 44°19' E 009°13'0 0.0
2017-Jul-15 14:59N 44°19' E 009°13'0 0.0
2017-Jul-15 14:00N 44°19' E 009°13'2 3.8
2017-Jul-15 13:30N 44°18' E 009°16'612.1
2017-Jul-15 13:00N 44°14' E 009°22'612.0
2017-Jul-15 12:30N 44°10' E 009°28'611.8
2017-Jul-15 12:00N 44°06' E 009°35'611.4
2017-Jul-15 11:30N 44°04' E 009°41'611.7
2017-Jul-15 11:00N 44°02' E 009°49'3 6.3
2017-Jul-15 10:30N 44°04' E 009°51'2 3.1
2017-Jul-15 09:59N 44°06' E 009°50'0 0.0
2017-Jul-15 09:29N 44°06' E 009°50'0 0.0
2017-Jul-15 08:59N 44°06' E 009°50'0 0.0
2017-Jul-15 08:26N 44°06' E 009°50'0 0.0
2017-Jul-15 07:59N 44°06' E 009°50'0 0.0
2017-Jul-15 07:29N 44°06' E 009°50'0 0.0
2017-Jul-15 07:00N 44°06' E 009°50'0 0.5
2017-Jul-15 06:30N 44°06' E 009°50'3 5.5
2017-Jul-15 06:00N 44°03' E 009°50'0 0.0
2017-Jul-15 05:28N 44°03' E 009°50'0 0.0
2017-Jul-15 04:58N 44°03' E 009°50'0 0.0
2017-Jul-15 04:28N 44°03' E 009°50'0 0.0
2017-Jul-15 03:58N 44°03' E 009°50'0 0.0
2017-Jul-15 03:28N 44°03' E 009°50'0 0.0
2017-Jul-15 02:58N 44°03' E 009°50'0 0.0
2017-Jul-15 02:28N 44°03' E 009°50'0 0.0
2017-Jul-15 01:58N 44°03' E 009°50'0 0.0
2017-Jul-15 01:28N 44°03' E 009°50'0 0.0
2017-Jul-15 00:58N 44°03' E 009°50'0 0.0
2017-Jul-15 00:28N 44°03' E 009°50'0 0.0
2017-Jul-14 23:58N 44°03' E 009°50'0 0.0
2017-Jul-14 23:28N 44°03' E 009°50'0 0.0
2017-Jul-14 22:55N 44°03' E 009°50'0 0.0
2017-Jul-14 22:28N 44°03' E 009°50'0 0.0
2017-Jul-14 21:58N 44°03' E 009°50'0 0.0
2017-Jul-14 21:28N 44°03' E 009°50'0 0.0
2017-Jul-14 20:58N 44°03' E 009°50'0 0.0
2017-Jul-14 20:28N 44°03' E 009°50'0 0.0
2017-Jul-14 19:55N 44°03' E 009°50'0 0.0
2017-Jul-14 19:30N 44°03' E 009°50'0 0.0
2017-Jul-14 19:00N 44°03' E 009°50'0 0.0
2017-Jul-14 18:30N 44°03' E 009°50'0 0.0
2017-Jul-14 18:00N 44°03' E 009°50'3 6.6
2017-Jul-14 17:30N 44°02' E 009°54'713.8
2017-Jul-14 17:00N 43°55' E 009°58'714.1
2017-Jul-14 16:30N 43°49' E 010°01'714.0
2017-Jul-14 16:00N 43°42' E 010°04'713.5
2017-Jul-14 15:30N 43°35' E 010°06'713.9
2017-Jul-14 15:00N 43°29' E 010°10'714.1
2017-Jul-14 14:30N 43°23' E 010°15'912.9
2017-Jul-14 13:50N 43°16' E 010°22'512.8
2017-Jul-14 13:24N 43°11' E 010°26'614.0
2017-Jul-14 13:00N 43°06' E 010°27'713.5
2017-Jul-14 12:30N 42°59' E 010°27'711.8
2017-Jul-14 11:55N 42°53' E 010°23'410.3
2017-Jul-14 11:30N 42°49' E 010°20'0 0.0
2017-Jul-13 21:35N 42°49' E 010°20'0 0.0
2017-Jul-13 18:34N 42°49' E 010°20'0 0.0
2017-Jul-13 18:27N 42°49' E 010°20'0 0.0
2017-Jul-13 18:00N 42°49' E 010°20'0 0.0
2017-Jul-13 17:27N 42°49' E 010°20'0 0.0
2017-Jul-13 17:00N 42°49' E 010°20'0 0.0
2017-Jul-13 16:30N 42°49' E 010°20'3 5.6
2017-Jul-13 16:00N 42°51' E 010°22'7 0.7
2017-Jul-13 06:43N 42°45' E 010°25'3 8.5
2017-Jul-13 06:23N 42°47' E 010°27'  
Track history (hours):
 
Tides and Currents Weather Stations Pressure Air Temp Water Temp Dewpoint Dewpoint Depression Visibility Wind Speed Wind Dir Waves Ship Positions

Tatiana 1

Last reported at 2017-Jul-22 11:56 UTC. Time now 2017-Jul-22 14:53 UTC.
Position N 38°55' E 001°27'.

Length 47 m; draft 2.5 m.

Type: Ship. MMSI: 256188000.

Date/timePositionNaut miles runAvg speedWind from/ knotsBaromVisibWave heightAir tempDewpointWater temp
2017-Jul-22 11:56N 38°55' E 001°27'0 0.0
2017-Jul-22 11:26N 38°55' E 001°27'0 0.0
2017-Jul-22 10:44N 38°55' E 001°27'1 0.1
2017-Jul-21 23:26N 38°54' E 001°26'4 9.3
2017-Jul-21 23:00N 38°55' E 001°31'5 9.6
2017-Jul-21 22:30N 38°58' E 001°36'5 9.6
2017-Jul-21 22:00N 39°01' E 001°40'5 9.6
2017-Jul-21 21:30N 39°05' E 001°44'5 9.7
2017-Jul-21 21:00N 39°09' E 001°48'5 9.8
2017-Jul-21 20:30N 39°13' E 001°52'5 9.9
2017-Jul-21 20:00N 39°17' E 001°55'510.1
2017-Jul-21 19:30N 39°21' E 001°59'510.1
2017-Jul-21 19:00N 39°25' E 002°03'5 9.9
2017-Jul-21 18:30N 39°28' E 002°07'5 9.9
2017-Jul-21 18:00N 39°32' E 002°12'510.0
2017-Jul-21 17:30N 39°36' E 002°16'510.0
2017-Jul-21 17:00N 39°40' E 002°21'510.5
2017-Jul-21 16:30N 39°43' E 002°25'510.4
2017-Jul-21 16:00N 39°47' E 002°30'510.4
2017-Jul-21 15:30N 39°50' E 002°35'5 9.8
2017-Jul-21 15:00N 39°53' E 002°41'5 9.9
2017-Jul-21 14:30N 39°55' E 002°46'5 9.8
2017-Jul-21 14:00N 39°58' E 002°52'112 9.3
2017-Jul-21 02:01N 41°10' E 004°45'0 9.9
2017-Jul-21 01:59N 41°10' E 004°45'5 9.4
2017-Jul-21 01:30N 41°15' E 004°47'5 9.6
2017-Jul-21 01:00N 41°19' E 004°50'5 9.9
2017-Jul-21 00:30N 41°23' E 004°53'5 9.9
2017-Jul-21 00:00N 41°28' E 004°56'5 9.9
2017-Jul-20 23:30N 41°32' E 004°59'7 9.8
2017-Jul-20 22:48N 41°38' E 005°03'3 9.9
2017-Jul-20 22:30N 41°41' E 005°05'27 9.7
2017-Jul-20 19:42N 42°05' E 005°22'210.0
2017-Jul-20 19:30N 42°07' E 005°23'510.1
2017-Jul-20 19:00N 42°11' E 005°26'610.1
2017-Jul-20 18:26N 42°16' E 005°30'510.1
2017-Jul-20 17:56N 42°21' E 005°33'4 9.8
2017-Jul-20 17:30N 42°24' E 005°35'5 9.7
2017-Jul-20 17:00N 42°29' E 005°38'5 9.4
2017-Jul-20 16:30N 42°33' E 005°41'5 9.2
2017-Jul-20 16:00N 42°37' E 005°44'5 9.3
2017-Jul-20 15:30N 42°41' E 005°47'6 9.0
2017-Jul-20 14:50N 42°46' E 005°52'810.0
2017-Jul-20 14:00N 42°49' E 006°03'510.2
2017-Jul-20 13:30N 42°50' E 006°09'510.4
2017-Jul-20 13:00N 42°52' E 006°16'510.4
2017-Jul-20 12:30N 42°54' E 006°23'510.1
2017-Jul-20 12:00N 42°57' E 006°28'510.3
2017-Jul-20 11:30N 43°01' E 006°33'510.3
2017-Jul-20 11:00N 43°05' E 006°37'910.1
2017-Jul-20 10:08N 43°13' E 006°43'110.0
2017-Jul-20 10:00N 43°14' E 006°43'5 3.1
2017-Jul-20 08:27N 43°16' E 006°37'0 0.1
2017-Jul-20 07:54N 43°16' E 006°38'0 0.0
2017-Jul-20 07:27N 43°16' E 006°38'0 0.0
2017-Jul-20 06:57N 43°16' E 006°38'0 0.0
2017-Jul-20 06:27N 43°16' E 006°38'0 0.0
2017-Jul-20 06:00N 43°16' E 006°38'0 0.0
2017-Jul-20 05:27N 43°16' E 006°38'0 0.0
2017-Jul-20 05:00N 43°16' E 006°38'0 0.0
2017-Jul-20 04:30N 43°16' E 006°38'0 0.0
2017-Jul-20 04:00N 43°16' E 006°38'0 0.0
2017-Jul-20 02:45N 43°16' E 006°38'0 0.1
2017-Jul-20 02:30N 43°16' E 006°38'0 0.0
2017-Jul-20 01:00N 43°16' E 006°38'0 0.0
2017-Jul-20 00:27N 43°16' E 006°38'0 0.0
2017-Jul-19 23:57N 43°16' E 006°38'0 0.0
2017-Jul-19 23:30N 43°16' E 006°38'0 0.0
2017-Jul-19 23:00N 43°16' E 006°38'0 0.0
2017-Jul-19 22:27N 43°16' E 006°38'0 0.0
2017-Jul-19 15:31N 43°16' E 006°37'0 0.0
2017-Jul-19 15:24N 43°16' E 006°37'1 3.7
2017-Jul-19 15:00N 43°17' E 006°39'4 7.1
2017-Jul-19 14:30N 43°15' E 006°43'2 3.3
2017-Jul-19 13:49N 43°13' E 006°40'0 0.0
2017-Jul-19 12:43N 43°13' E 006°40'0 0.0
2017-Jul-19 12:25N 43°13' E 006°40'0 0.0
2017-Jul-19 11:58N 43°13' E 006°40'0 0.0
2017-Jul-19 11:28N 43°13' E 006°40'0 0.0
2017-Jul-19 10:43N 43°13' E 006°40'0 0.0
2017-Jul-19 10:28N 43°13' E 006°40'0 0.0
2017-Jul-19 08:27N 43°13' E 006°40'4 3.6
2017-Jul-19 07:24N 43°16' E 006°37'0 0.0
2017-Jul-19 06:03N 43°16' E 006°37'0 0.1
2017-Jul-19 06:00N 43°16' E 006°37'0 0.0
2017-Jul-19 05:30N 43°16' E 006°37'0 0.0
2017-Jul-18 21:15N 43°16' E 006°37'0 0.1
2017-Jul-18 21:00N 43°16' E 006°37'0 0.0
2017-Jul-18 12:07N 43°16' E 006°37'8 7.2
2017-Jul-18 11:05N 43°19' E 006°47'111.4
2017-Jul-18 11:00N 43°20' E 006°48'611.3
2017-Jul-18 10:30N 43°24' E 006°53'5 9.7
2017-Jul-18 10:00N 43°28' E 006°57'5 9.8
2017-Jul-18 09:30N 43°32' E 007°00'1 0.3
2017-Jul-18 05:43N 43°33' E 007°01'0 0.0
2017-Jul-18 05:19N 43°33' E 007°01'0 0.0
2017-Jul-18 04:49N 43°33' E 007°01'0 0.0
2017-Jul-18 04:19N 43°33' E 007°01'0 0.0
2017-Jul-18 03:49N 43°33' E 007°01'0 0.0
2017-Jul-18 03:01N 43°33' E 007°01'0 0.0
2017-Jul-18 02:49N 43°33' E 007°01'0 0.0
2017-Jul-18 02:07N 43°33' E 007°01'0 0.0
2017-Jul-18 01:49N 43°33' E 007°01'0 0.0
2017-Jul-18 01:07N 43°33' E 007°01'0 0.0
2017-Jul-18 00:49N 43°33' E 007°01'0 0.0
2017-Jul-18 00:19N 43°33' E 007°01'0 0.0
2017-Jul-17 23:49N 43°33' E 007°01'0 0.0
2017-Jul-17 23:25N 43°33' E 007°01'0 0.0
2017-Jul-17 22:55N 43°33' E 007°01'0 0.0
2017-Jul-17 22:25N 43°33' E 007°01'0 0.0
2017-Jul-17 21:43N 43°33' E 007°01'0 0.0
2017-Jul-17 21:07N 43°33' E 007°01'0 0.0
2017-Jul-17 20:55N 43°33' E 007°01'0 0.0
2017-Jul-17 20:13N 43°33' E 007°01'0 0.0
2017-Jul-17 19:55N 43°33' E 007°01'0 0.0
2017-Jul-17 19:25N 43°33' E 007°01'0 0.0
2017-Jul-17 18:55N 43°33' E 007°01'0 0.0
2017-Jul-17 18:28N 43°33' E 007°01'0 0.0
2017-Jul-17 17:43N 43°33' E 007°01'0 0.0
2017-Jul-17 17:13N 43°33' E 007°01'0 0.0
2017-Jul-17 16:43N 43°33' E 007°01'0 0.0
2017-Jul-17 16:19N 43°33' E 007°01'0 0.2
2017-Jul-17 16:01N 43°33' E 007°01'3 6.3
2017-Jul-17 15:30N 43°31' E 007°04'0 0.7
2017-Jul-17 15:00N 43°31' E 007°04'0 0.0
2017-Jul-17 14:27N 43°31' E 007°04'0 0.0
2017-Jul-17 14:00N 43°31' E 007°04'0 0.0
2017-Jul-17 13:24N 43°31' E 007°04'0 0.0
2017-Jul-17 12:57N 43°31' E 007°04'0 0.0
2017-Jul-17 12:30N 43°31' E 007°04'1 2.8
2017-Jul-17 12:00N 43°32' E 007°06'611.3
2017-Jul-17 11:29N 43°35' E 007°12'711.7
2017-Jul-17 10:53N 43°40' E 007°20'6 0.4
2017-Jul-16 17:37N 43°44' E 007°26'0 0.0
2017-Jul-16 17:29N 43°44' E 007°26'21 1.5
2017-Jul-16 03:51N 43°49' E 007°54'412.5
2017-Jul-16 03:29N 43°50' E 007°60'612.6
2017-Jul-16 03:01N 43°53' E 008°07'612.9
2017-Jul-16 02:31N 43°57' E 008°15'714.6
2017-Jul-16 02:00N 44°01' E 008°23'714.7
2017-Jul-16 01:30N 44°06' E 008°30'714.6
2017-Jul-16 01:01N 44°11' E 008°38'714.3
2017-Jul-16 00:30N 44°15' E 008°46'713.9
2017-Jul-16 00:00N 44°17' E 008°55'612.6
2017-Jul-15 23:30N 44°17' E 009°04'612.4
2017-Jul-15 23:00N 44°17' E 009°13'1 1.8
2017-Jul-15 22:30N 44°18' E 009°13'0 0.9
2017-Jul-15 22:00N 44°19' E 009°13'1 0.3
2017-Jul-15 16:57N 44°20' E 009°13'0 0.2
2017-Jul-15 16:29N 44°20' E 009°13'1 2.3
2017-Jul-15 16:00N 44°19' E 009°13'0 0.0
2017-Jul-15 15:30N 44°19' E 009°13'0 0.0
2017-Jul-15 14:59N 44°19' E 009°13'0 0.0
2017-Jul-15 14:00N 44°19' E 009°13'2 3.8
2017-Jul-15 13:30N 44°18' E 009°16'612.1
2017-Jul-15 13:00N 44°14' E 009°22'612.0
2017-Jul-15 12:30N 44°10' E 009°28'611.8
2017-Jul-15 12:00N 44°06' E 009°35'611.4
2017-Jul-15 11:30N 44°04' E 009°41'611.7
2017-Jul-15 11:00N 44°02' E 009°49'3 6.3
2017-Jul-15 10:30N 44°04' E 009°51'2 3.1
2017-Jul-15 09:59N 44°06' E 009°50'0 0.0
2017-Jul-15 09:29N 44°06' E 009°50'0 0.0
2017-Jul-15 08:59N 44°06' E 009°50'0 0.0
2017-Jul-15 08:26N 44°06' E 009°50'0 0.0
2017-Jul-15 07:59N 44°06' E 009°50'0 0.0
2017-Jul-15 07:29N 44°06' E 009°50'0 0.0
2017-Jul-15 07:00N 44°06' E 009°50'0 0.5
2017-Jul-15 06:30N 44°06' E 009°50'3 5.5
2017-Jul-15 06:00N 44°03' E 009°50'0 0.0
2017-Jul-15 05:28N 44°03' E 009°50'0 0.0
2017-Jul-15 04:58N 44°03' E 009°50'0 0.0
2017-Jul-15 04:28N 44°03' E 009°50'0 0.0
2017-Jul-15 03:58N 44°03' E 009°50'0 0.0
2017-Jul-15 03:28N 44°03' E 009°50'0 0.0
2017-Jul-15 02:58N 44°03' E 009°50'0 0.0
2017-Jul-15 02:28N 44°03' E 009°50'0 0.0
2017-Jul-15 01:58N 44°03' E 009°50'0 0.0
2017-Jul-15 01:28N 44°03' E 009°50'0 0.0
2017-Jul-15 00:58N 44°03' E 009°50'0 0.0
2017-Jul-15 00:28N 44°03' E 009°50'0 0.0
2017-Jul-14 23:58N 44°03' E 009°50'0 0.0
2017-Jul-14 23:28N 44°03' E 009°50'0 0.0
2017-Jul-14 22:55N 44°03' E 009°50'0 0.0
2017-Jul-14 22:28N 44°03' E 009°50'0 0.0
2017-Jul-14 21:58N 44°03' E 009°50'0 0.0
2017-Jul-14 21:28N 44°03' E 009°50'0 0.0
2017-Jul-14 20:58N 44°03' E 009°50'0 0.0
2017-Jul-14 20:28N 44°03' E 009°50'0 0.0
2017-Jul-14 19:55N 44°03' E 009°50'0 0.0
2017-Jul-14 19:30N 44°03' E 009°50'0 0.0
2017-Jul-14 19:00N 44°03' E 009°50'0 0.0
2017-Jul-14 18:30N 44°03' E 009°50'0 0.0
2017-Jul-14 18:00N 44°03' E 009°50'3 6.6
2017-Jul-14 17:30N 44°02' E 009°54'713.8
2017-Jul-14 17:00N 43°55' E 009°58'714.1
2017-Jul-14 16:30N 43°49' E 010°01'714.0
2017-Jul-14 16:00N 43°42' E 010°04'713.5
2017-Jul-14 15:30N 43°35' E 010°06'713.9
2017-Jul-14 15:00N 43°29' E 010°10'714.1
2017-Jul-14 14:30N 43°23' E 010°15'912.9
2017-Jul-14 13:50N 43°16' E 010°22'512.8
2017-Jul-14 13:24N 43°11' E 010°26'614.0
2017-Jul-14 13:00N 43°06' E 010°27'713.5
2017-Jul-14 12:30N 42°59' E 010°27'711.8
2017-Jul-14 11:55N 42°53' E 010°23'410.3
2017-Jul-14 11:30N 42°49' E 010°20'0 0.0
2017-Jul-13 21:35N 42°49' E 010°20'0 0.0
2017-Jul-13 18:34N 42°49' E 010°20'0 0.0
2017-Jul-13 18:27N 42°49' E 010°20'0 0.0
2017-Jul-13 18:00N 42°49' E 010°20'0 0.0
2017-Jul-13 17:27N 42°49' E 010°20'0 0.0
2017-Jul-13 17:00N 42°49' E 010°20'0 0.0
2017-Jul-13 16:30N 42°49' E 010°20'3 5.6
2017-Jul-13 16:00N 42°51' E 010°22'7 0.7
2017-Jul-13 06:43N 42°45' E 010°25'3 8.5
2017-Jul-13 06:23N 42°47' E 010°27'  

Dump ship's entire track history